Thedford, Canada
Current Conditions -  °F | °C
As of 4:00 AM on Thursday 23 Oct 2014 (Local Time) from CYZR Reporting Station
Clear Clear  
Wind Chill: 40°   Ceiling: Unl
Heat Index: 45°   Visibility: 9mi
Dew Point: 41°   Wind: 8mph
Humidity: 87%   Direction: 340°NNW
Pressure: 30.24"   Gusts: NA
Location:  43.17°N, 81.85°W
Report Text: CYZR 230800Z AUTO 34007KT 9SM CLR 07/05 A3024 RMK SLP243
Loading
Personal Weather Stations






























Interactive Weather Map
Tropical Storm Tracking
New forecast layout! Learn more

10-Day Weather Forecast

Advertisements
Track Severe Weather on mobile